sensor_id;sensor_type;location;lat;lon;timestamp;P1;P2;P0
65383;PMS5003;51986;52.788;41.368;2023-12-29T00:00:44;11.00;9.00;9.00
65383;PMS5003;51986;52.788;41.368;2023-12-29T00:03:11;16.75;16.00;14.25
65383;PMS5003;51986;52.788;41.368;2023-12-29T00:05:38;20.00;20.00;17.00
65383;PMS5003;51986;52.788;41.368;2023-12-29T00:08:05;16.00;16.00;15.00
65383;PMS5003;51986;52.788;41.368;2023-12-29T00:10:33;13.00;13.00;13.00
65383;PMS5003;51986;52.788;41.368;2023-12-29T00:13:00;11.00;10.75;9.75
65383;PMS5003;51986;52.788;41.368;2023-12-29T00:15:27;15.00;14.00;13.25
65383;PMS5003;51986;52.788;41.368;2023-12-29T00:17:54;16.75;16.75;15.00
65383;PMS5003;51986;52.788;41.368;2023-12-29T00:20:22;17.00;17.00;15.00
65383;PMS5003;51986;52.788;41.368;2023-12-29T00:23:03;17.00;17.00;15.00
65383;PMS5003;51986;52.788;41.368;2023-12-29T00:25:30;11.00;11.00;11.00
65383;PMS5003;51986;52.788;41.368;2023-12-29T00:27:57;11.00;11.00;10.00
65383;PMS5003;51986;52.788;41.368;2023-12-29T00:30:25;16.00;16.00;14.00
65383;PMS5003;51986;52.788;41.368;2023-12-29T00:33:12;17.50;17.00;15.00
65383;PMS5003;51986;52.788;41.368;2023-12-29T00:35:39;18.00;18.00;16.00
65383;PMS5003;51986;52.788;41.368;2023-12-29T00:38:06;16.75;16.75;14.00
65383;PMS5003;51986;52.788;41.368;2023-12-29T00:40:33;19.50;19.50;16.25
65383;PMS5003;51986;52.788;41.368;2023-12-29T00:43:01;19.00;19.00;17.00
65383;PMS5003;51986;52.788;41.368;2023-12-29T00:45:28;12.50;12.50;12.50
65383;PMS5003;51986;52.788;41.368;2023-12-29T00:47:55;11.00;11.00;9.00
65383;PMS5003;51986;52.788;41.368;2023-12-29T00:50:23;15.25;15.25;13.50
65383;PMS5003;51986;52.788;41.368;2023-12-29T00:52:50;11.00;11.00;11.00
65383;PMS5003;51986;52.788;41.368;2023-12-29T00:55:17;15.50;15.50;14.00
65383;PMS5003;51986;52.788;41.368;2023-12-29T00:57:44;11.75;11.75;11.75
65383;PMS5003;51986;52.788;41.368;2023-12-29T01:00:12;10.00;10.00;9.50
65383;PMS5003;51986;52.788;41.368;2023-12-29T01:02:39;9.00;9.00;7.00
65383;PMS5003;51986;52.788;41.368;2023-12-29T01:05:06;14.75;14.75;13.75
65383;PMS5003;51986;52.788;41.368;2023-12-29T01:07:34;11.00;10.00;10.00
65383;PMS5003;51986;52.788;41.368;2023-12-29T01:10:01;11.00;9.00;8.25
65383;PMS5003;51986;52.788;41.368;2023-12-29T01:12:28;15.00;14.50;13.00
65383;PMS5003;51986;52.788;41.368;2023-12-29T01:14:55;16.00;16.00;14.00
65383;PMS5003;51986;52.788;41.368;2023-12-29T01:17:22;12.00;12.00;11.00
65383;PMS5003;51986;52.788;41.368;2023-12-29T01:19:51;8.50;8.50;7.50
65383;PMS5003;51986;52.788;41.368;2023-12-29T01:22:18;14.25;14.25;13.00
65383;PMS5003;51986;52.788;41.368;2023-12-29T01:24:47;17.00;17.00;14.75
65383;PMS5003;51986;52.788;41.368;2023-12-29T01:27:14;11.00;11.00;11.00
65383;PMS5003;51986;52.788;41.368;2023-12-29T01:29:41;9.00;9.00;9.00
65383;PMS5003;51986;52.788;41.368;2023-12-29T01:32:08;14.50;14.50;13.50
65383;PMS5003;51986;52.788;41.368;2023-12-29T01:34:35;13.00;13.00;11.25
65383;PMS5003;51986;52.788;41.368;2023-12-29T01:37:03;17.25;17.25;15.00
65383;PMS5003;51986;52.788;41.368;2023-12-29T01:39:30;21.50;20.50;17.00
65383;PMS5003;51986;52.788;41.368;2023-12-29T01:41:57;22.00;21.00;17.00
65383;PMS5003;51986;52.788;41.368;2023-12-29T01:44:26;15.00;14.50;13.00
65383;PMS5003;51986;52.788;41.368;2023-12-29T01:46:54;12.00;11.00;10.00
65383;PMS5003;51986;52.788;41.368;2023-12-29T01:49:25;18.00;17.25;15.00
65383;PMS5003;51986;52.788;41.368;2023-12-29T01:51:55;19.75;19.00;15.75
65383;PMS5003;51986;52.788;41.368;2023-12-29T01:54:34;15.00;15.00;14.00
65383;PMS5003;51986;52.788;41.368;2023-12-29T01:57:02;13.00;13.00;13.00
65383;PMS5003;51986;52.788;41.368;2023-12-29T01:59:30;18.75;18.75;16.00
65383;PMS5003;51986;52.788;41.368;2023-12-29T02:01:58;20.25;20.00;17.00
65383;PMS5003;51986;52.788;41.368;2023-12-29T02:04:26;16.00;16.00;13.00
65383;PMS5003;51986;52.788;41.368;2023-12-29T02:06:54;18.75;18.75;15.50
65383;PMS5003;51986;52.788;41.368;2023-12-29T02:09:24;21.50;19.75;17.00
65383;PMS5003;51986;52.788;41.368;2023-12-29T02:11:51;18.00;18.00;15.50
65383;PMS5003;51986;52.788;41.368;2023-12-29T02:14:18;15.00;15.00;13.00
65383;PMS5003;51986;52.788;41.368;2023-12-29T02:19:46;21.50;21.00;17.00
65383;PMS5003;51986;52.788;41.368;2023-12-29T02:22:15;16.75;16.50;14.00
65383;PMS5003;51986;52.788;41.368;2023-12-29T02:24:46;18.50;17.50;15.50
65383;PMS5003;51986;52.788;41.368;2023-12-29T02:29:45;11.25;11.25;11.00
65383;PMS5003;51986;52.788;41.368;2023-12-29T02:32:22;11.00;11.00;9.00
65383;PMS5003;51986;52.788;41.368;2023-12-29T02:34:51;10.75;10.75;8.00
65383;PMS5003;51986;52.788;41.368;2023-12-29T02:37:20;8.00;8.00;5.50
65383;PMS5003;51986;52.788;41.368;2023-12-29T02:39:48;14.00;14.00;12.75
65383;PMS5003;51986;52.788;41.368;2023-12-29T02:42:15;17.50;17.00;15.00
65383;PMS5003;51986;52.788;41.368;2023-12-29T02:44:43;18.00;17.00;15.00
65383;PMS5003;51986;52.788;41.368;2023-12-29T02:47:10;18.50;17.50;15.00
65383;PMS5003;51986;52.788;41.368;2023-12-29T02:49:37;12.75;12.75;12.00
65383;PMS5003;51986;52.788;41.368;2023-12-29T02:52:04;15.75;15.75;14.50
65383;PMS5003;51986;52.788;41.368;2023-12-29T02:54:32;19.00;18.75;16.00
65383;PMS5003;51986;52.788;41.368;2023-12-29T02:56:59;13.00;13.00;13.00
65383;PMS5003;51986;52.788;41.368;2023-12-29T02:59:26;9.00;9.00;9.00
65383;PMS5003;51986;52.788;41.368;2023-12-29T03:01:53;10.50;8.50;8.00
65383;PMS5003;51986;52.788;41.368;2023-12-29T03:04:20;9.00;7.00;5.25
65383;PMS5003;51986;52.788;41.368;2023-12-29T03:06:47;15.25;14.50;13.00
65383;PMS5003;51986;52.788;41.368;2023-12-29T03:09:14;11.75;11.25;10.50
65383;PMS5003;51986;52.788;41.368;2023-12-29T03:11:42;9.50;9.00;7.00
65383;PMS5003;51986;52.788;41.368;2023-12-29T03:14:09;14.75;14.00;12.50
65383;PMS5003;51986;52.788;41.368;2023-12-29T03:16:36;15.25;14.75;13.00
65383;PMS5003;51986;52.788;41.368;2023-12-29T03:19:04;19.50;19.50;15.50
65383;PMS5003;51986;52.788;41.368;2023-12-29T03:21:32;21.00;21.00;17.00
65383;PMS5003;51986;52.788;41.368;2023-12-29T03:24:00;12.75;12.75;11.25
65383;PMS5003;51986;52.788;41.368;2023-12-29T03:26:27;16.00;16.00;14.25
65383;PMS5003;51986;52.788;41.368;2023-12-29T03:28:54;12.00;12.00;12.00
65383;PMS5003;51986;52.788;41.368;2023-12-29T03:31:22;16.50;16.50;14.00
65383;PMS5003;51986;52.788;41.368;2023-12-29T03:33:49;13.00;12.25;12.00
65383;PMS5003;51986;52.788;41.368;2023-12-29T03:36:18;9.25;9.00;9.00
65383;PMS5003;51986;52.788;41.368;2023-12-29T03:38:45;14.75;13.75;13.00
65383;PMS5003;51986;52.788;41.368;2023-12-29T03:41:12;12.00;12.00;11.00
65383;PMS5003;51986;52.788;41.368;2023-12-29T03:43:39;17.00;17.00;15.00
65383;PMS5003;51986;52.788;41.368;2023-12-29T03:46:19;19.00;18.75;15.00
65383;PMS5003;51986;52.788;41.368;2023-12-29T03:48:47;20.00;19.00;15.00
65383;PMS5003;51986;52.788;41.368;2023-12-29T03:51:15;13.75;13.00;13.00
65383;PMS5003;51986;52.788;41.368;2023-12-29T03:53:42;16.00;15.75;14.50
65383;PMS5003;51986;52.788;41.368;2023-12-29T03:56:16;17.00;16.75;14.00
65383;PMS5003;51986;52.788;41.368;2023-12-29T03:58:45;13.00;12.00;11.00
65383;PMS5003;51986;52.788;41.368;2023-12-29T04:01:14;15.25;15.25;14.25
65383;PMS5003;51986;52.788;41.368;2023-12-29T04:03:42;21.75;20.50;17.75
65383;PMS5003;51986;52.788;41.368;2023-12-29T04:06:11;14.00;13.25;13.00
65383;PMS5003;51986;52.788;41.368;2023-12-29T04:08:39;16.50;15.50;14.25
65383;PMS5003;51986;52.788;41.368;2023-12-29T04:11:06;21.00;20.00;16.00
65383;PMS5003;51986;52.788;41.368;2023-12-29T04:13:34;15.00;14.25;12.00
65383;PMS5003;51986;52.788;41.368;2023-12-29T04:16:01;17.75;17.00;15.00
65383;PMS5003;51986;52.788;41.368;2023-12-29T04:18:28;13.00;13.00;10.00
65383;PMS5003;51986;52.788;41.368;2023-12-29T04:20:56;15.50;15.50;13.50
65383;PMS5003;51986;52.788;41.368;2023-12-29T04:23:23;18.50;18.50;15.00
65383;PMS5003;51986;52.788;41.368;2023-12-29T04:25:50;12.00;12.00;11.00
65383;PMS5003;51986;52.788;41.368;2023-12-29T04:28:19;11.00;11.00;11.00
65383;PMS5003;51986;52.788;41.368;2023-12-29T04:30:46;13.25;13.25;12.50
65383;PMS5003;51986;52.788;41.368;2023-12-29T04:33:13;11.00;11.00;11.00
65383;PMS5003;51986;52.788;41.368;2023-12-29T04:35:40;14.50;14.50;13.50
65383;PMS5003;51986;52.788;41.368;2023-12-29T04:38:08;18.50;18.50;16.00
65383;PMS5003;51986;52.788;41.368;2023-12-29T04:40:35;20.00;19.50;17.00
65383;PMS5003;51986;52.788;41.368;2023-12-29T04:43:03;21.00;20.00;17.00
65383;PMS5003;51986;52.788;41.368;2023-12-29T04:45:30;13.00;12.50;10.75
65383;PMS5003;51986;52.788;41.368;2023-12-29T04:47:57;11.00;11.00;7.00
65383;PMS5003;51986;52.788;41.368;2023-12-29T04:50:25;16.50;14.75;13.25
65383;PMS5003;51986;52.788;41.368;2023-12-29T04:52:52;17.00;16.00;14.00
65383;PMS5003;51986;52.788;41.368;2023-12-29T04:55:20;17.00;17.00;14.00
65383;PMS5003;51986;52.788;41.368;2023-12-29T04:57:47;12.75;12.50;11.00
65383;PMS5003;51986;52.788;41.368;2023-12-29T05:00:15;17.00;17.00;15.00
65383;PMS5003;51986;52.788;41.368;2023-12-29T05:02:42;12.25;12.00;11.25
65383;PMS5003;51986;52.788;41.368;2023-12-29T05:05:09;16.00;16.00;14.00
65383;PMS5003;51986;52.788;41.368;2023-12-29T05:07:37;11.25;11.25;11.00
65383;PMS5003;51986;52.788;41.368;2023-12-29T05:10:04;16.75;15.25;13.75
65383;PMS5003;51986;52.788;41.368;2023-12-29T05:12:31;15.75;15.00;13.50
65383;PMS5003;51986;52.788;41.368;2023-12-29T05:14:58;12.50;12.50;10.75
65383;PMS5003;51986;52.788;41.368;2023-12-29T05:17:26;10.00;10.00;7.50
65383;PMS5003;51986;52.788;41.368;2023-12-29T05:19:53;9.25;9.25;6.50
65383;PMS5003;51986;52.788;41.368;2023-12-29T05:22:21;14.75;14.50;12.50
65383;PMS5003;51986;52.788;41.368;2023-12-29T05:24:48;11.00;11.00;9.00
65383;PMS5003;51986;52.788;41.368;2023-12-29T05:27:15;11.00;9.75;7.75
65383;PMS5003;51986;52.788;41.368;2023-12-29T05:29:42;12.00;11.00;9.00
65383;PMS5003;51986;52.788;41.368;2023-12-29T05:32:10;11.00;10.50;9.00
65383;PMS5003;51986;52.788;41.368;2023-12-29T05:34:37;11.00;9.00;7.00
65383;PMS5003;51986;52.788;41.368;2023-12-29T05:37:04;11.00;9.00;5.00
65383;PMS5003;51986;52.788;41.368;2023-12-29T05:39:31;16.25;15.75;12.75
65383;PMS5003;51986;52.788;41.368;2023-12-29T05:41:58;19.00;19.00;15.00
65383;PMS5003;51986;52.788;41.368;2023-12-29T05:44:25;11.25;11.00;10.00
65383;PMS5003;51986;52.788;41.368;2023-12-29T05:46:52;11.00;10.00;8.00
65383;PMS5003;51986;52.788;41.368;2023-12-29T05:49:23;10.50;9.00;7.00
65383;PMS5003;51986;52.788;41.368;2023-12-29T05:51:51;10.50;10.00;8.25
65383;PMS5003;51986;52.788;41.368;2023-12-29T05:54:18;13.00;12.00;10.00
65383;PMS5003;51986;52.788;41.368;2023-12-29T05:56:47;17.25;16.75;14.25
65383;PMS5003;51986;52.788;41.368;2023-12-29T05:59:14;16.00;15.00;13.00
65383;PMS5003;51986;52.788;41.368;2023-12-29T06:01:41;20.00;19.25;16.25
65383;PMS5003;51986;52.788;41.368;2023-12-29T06:04:09;21.75;19.75;17.00
65383;PMS5003;51986;52.788;41.368;2023-12-29T06:06:36;23.00;20.75;17.00
65383;PMS5003;51986;52.788;41.368;2023-12-29T06:09:03;18.00;17.50;15.00
65383;PMS5003;51986;52.788;41.368;2023-12-29T06:11:31;16.00;15.50;14.00
65383;PMS5003;51986;52.788;41.368;2023-12-29T06:13:58;14.00;13.00;13.00
65383;PMS5003;51986;52.788;41.368;2023-12-29T06:16:25;12.50;12.00;10.75
65383;PMS5003;51986;52.788;41.368;2023-12-29T06:18:52;20.25;19.25;15.50
65383;PMS5003;51986;52.788;41.368;2023-12-29T06:21:20;17.25;17.25;14.25
65383;PMS5003;51986;52.788;41.368;2023-12-29T06:23:47;20.75;20.00;17.25
65383;PMS5003;51986;52.788;41.368;2023-12-29T06:26:18;17.50;17.25;14.75
65383;PMS5003;51986;52.788;41.368;2023-12-29T06:28:47;12.00;12.00;11.00
65383;PMS5003;51986;52.788;41.368;2023-12-29T06:31:14;18.50;18.00;15.00
65383;PMS5003;51986;52.788;41.368;2023-12-29T06:33:44;15.25;15.25;13.50
65383;PMS5003;51986;52.788;41.368;2023-12-29T06:36:11;20.00;19.75;16.25
65383;PMS5003;51986;52.788;41.368;2023-12-29T06:38:39;24.75;22.00;18.00
65383;PMS5003;51986;52.788;41.368;2023-12-29T06:41:06;23.50;21.75;18.00
65383;PMS5003;51986;52.788;41.368;2023-12-29T06:43:33;21.00;19.00;16.00
65383;PMS5003;51986;52.788;41.368;2023-12-29T06:46:00;17.50;17.00;15.00
65383;PMS5003;51986;52.788;41.368;2023-12-29T06:48:27;17.25;16.50;14.25
65383;PMS5003;51986;52.788;41.368;2023-12-29T06:50:55;22.25;20.50;16.00
65383;PMS5003;51986;52.788;41.368;2023-12-29T06:53:22;16.00;16.00;13.00
65383;PMS5003;51986;52.788;41.368;2023-12-29T06:55:49;15.00;15.00;13.00
65383;PMS5003;51986;52.788;41.368;2023-12-29T06:58:16;13.00;13.00;12.00
65383;PMS5003;51986;52.788;41.368;2023-12-29T07:00:43;14.00;14.00;12.00
65383;PMS5003;51986;52.788;41.368;2023-12-29T07:03:15;19.25;18.75;14.50
65383;PMS5003;51986;52.788;41.368;2023-12-29T07:05:42;19.00;19.00;16.00
65383;PMS5003;51986;52.788;41.368;2023-12-29T07:08:12;22.75;21.25;18.00
65383;PMS5003;51986;52.788;41.368;2023-12-29T07:10:40;21.75;20.00;17.00
65383;PMS5003;51986;52.788;41.368;2023-12-29T07:13:07;18.00;18.00;16.00
65383;PMS5003;51986;52.788;41.368;2023-12-29T07:15:34;23.75;21.00;18.00
65383;PMS5003;51986;52.788;41.368;2023-12-29T07:18:01;25.00;22.00;18.00
65383;PMS5003;51986;52.788;41.368;2023-12-29T07:20:29;23.00;21.25;18.00
65383;PMS5003;51986;52.788;41.368;2023-12-29T07:22:56;25.75;23.00;18.00
65383;PMS5003;51986;52.788;41.368;2023-12-29T07:25:23;27.00;23.75;18.00
65383;PMS5003;51986;52.788;41.368;2023-12-29T07:27:50;21.50;20.00;16.00
65383;PMS5003;51986;52.788;41.368;2023-12-29T07:30:17;20.00;20.00;16.00
65383;PMS5003;51986;52.788;41.368;2023-12-29T07:32:44;24.00;22.00;18.00
65383;PMS5003;51986;52.788;41.368;2023-12-29T07:35:12;19.00;18.00;14.00
65383;PMS5003;51986;52.788;41.368;2023-12-29T07:37:39;21.50;20.00;15.50
65383;PMS5003;51986;52.788;41.368;2023-12-29T07:40:06;28.00;23.00;18.00
65383;PMS5003;51986;52.788;41.368;2023-12-29T07:42:34;20.50;18.75;15.00
65383;PMS5003;51986;52.788;41.368;2023-12-29T07:45:01;17.00;16.00;14.00
65383;PMS5003;51986;52.788;41.368;2023-12-29T07:47:28;18.00;17.00;14.00
65383;PMS5003;51986;52.788;41.368;2023-12-29T07:49:55;17.00;16.50;13.00
65383;PMS5003;51986;52.788;41.368;2023-12-29T07:52:22;18.00;16.00;14.00
65383;PMS5003;51986;52.788;41.368;2023-12-29T07:54:50;17.00;15.75;13.00
65383;PMS5003;51986;52.788;41.368;2023-12-29T07:57:17;16.00;16.00;13.00
65383;PMS5003;51986;52.788;41.368;2023-12-29T07:59:44;22.00;21.00;17.00
65383;PMS5003;51986;52.788;41.368;2023-12-29T08:02:11;21.00;19.75;15.25
65383;PMS5003;51986;52.788;41.368;2023-12-29T08:04:38;25.50;22.00;18.50
65383;PMS5003;51986;52.788;41.368;2023-12-29T08:07:05;24.50;21.25;18.00
65383;PMS5003;51986;52.788;41.368;2023-12-29T08:09:32;20.75;20.00;16.00
65383;PMS5003;51986;52.788;41.368;2023-12-29T08:12:00;20.00;19.00;15.00
65383;PMS5003;51986;52.788;41.368;2023-12-29T08:14:27;20.25;20.00;15.00
65383;PMS5003;51986;52.788;41.368;2023-12-29T08:16:54;19.75;18.00;14.00
65383;PMS5003;51986;52.788;41.368;2023-12-29T08:19:21;19.00;18.00;14.00
65383;PMS5003;51986;52.788;41.368;2023-12-29T08:21:48;18.75;18.00;14.00
65383;PMS5003;51986;52.788;41.368;2023-12-29T08:24:15;21.00;19.00;14.00
65383;PMS5003;51986;52.788;41.368;2023-12-29T08:26:45;22.25;20.00;14.25
65383;PMS5003;51986;52.788;41.368;2023-12-29T08:29:13;24.75;21.75;17.25
65383;PMS5003;51986;52.788;41.368;2023-12-29T08:31:41;26.00;22.00;17.25
65383;PMS5003;51986;52.788;41.368;2023-12-29T08:34:09;29.00;24.00;18.75
65383;PMS5003;51986;52.788;41.368;2023-12-29T08:36:37;31.00;26.00;20.00
65383;PMS5003;51986;52.788;41.368;2023-12-29T08:39:04;26.25;22.75;18.00
65383;PMS5003;51986;52.788;41.368;2023-12-29T08:41:32;24.00;21.00;18.00
65383;PMS5003;51986;52.788;41.368;2023-12-29T08:43:59;28.50;24.50;19.25
65383;PMS5003;51986;52.788;41.368;2023-12-29T08:46:26;31.00;26.00;20.00
65383;PMS5003;51986;52.788;41.368;2023-12-29T08:48:53;25.25;22.00;17.00
65383;PMS5003;51986;52.788;41.368;2023-12-29T08:51:20;29.50;24.00;18.75
65383;PMS5003;51986;52.788;41.368;2023-12-29T08:53:47;29.00;23.00;18.00
65383;PMS5003;51986;52.788;41.368;2023-12-29T08:56:15;25.00;21.00;17.00
65383;PMS5003;51986;52.788;41.368;2023-12-29T08:58:42;27.00;22.50;18.00
65383;PMS5003;51986;52.788;41.368;2023-12-29T09:01:09;30.75;25.00;19.50
65383;PMS5003;51986;52.788;41.368;2023-12-29T09:03:36;30.00;25.00;20.00
65383;PMS5003;51986;52.788;41.368;2023-12-29T09:06:03;30.00;25.00;20.00
65383;PMS5003;51986;52.788;41.368;2023-12-29T09:08:30;26.25;23.00;18.00
65383;PMS5003;51986;52.788;41.368;2023-12-29T09:10:58;29.00;24.50;18.50
65383;PMS5003;51986;52.788;41.368;2023-12-29T09:13:25;29.50;24.00;19.00
65383;PMS5003;51986;52.788;41.368;2023-12-29T09:15:53;30.00;25.50;20.00
65383;PMS5003;51986;52.788;41.368;2023-12-29T09:18:21;28.25;24.00;18.00
65383;PMS5003;51986;52.788;41.368;2023-12-29T09:20:49;29.00;23.25;18.00
65383;PMS5003;51986;52.788;41.368;2023-12-29T09:23:16;27.00;23.00;18.00
65383;PMS5003;51986;52.788;41.368;2023-12-29T09:25:44;30.25;25.00;18.50
65383;PMS5003;51986;52.788;41.368;2023-12-29T09:28:11;33.00;28.00;21.75
65383;PMS5003;51986;52.788;41.368;2023-12-29T09:30:38;30.00;25.00;20.00
65383;PMS5003;51986;52.788;41.368;2023-12-29T09:33:05;25.00;22.75;18.00
65383;PMS5003;51986;52.788;41.368;2023-12-29T09:35:32;28.00;24.00;18.50
65383;PMS5003;51986;52.788;41.368;2023-12-29T09:38:01;29.75;25.00;20.00
65383;PMS5003;51986;52.788;41.368;2023-12-29T09:40:28;32.75;26.00;20.00
65383;PMS5003;51986;52.788;41.368;2023-12-29T09:42:55;30.00;24.25;18.75
65383;PMS5003;51986;52.788;41.368;2023-12-29T09:45:23;26.00;22.00;18.00
65383;PMS5003;51986;52.788;41.368;2023-12-29T09:47:51;24.75;21.00;17.00
65383;PMS5003;51986;52.788;41.368;2023-12-29T09:50:19;31.25;25.25;20.00
65383;PMS5003;51986;52.788;41.368;2023-12-29T09:52:50;34.00;28.00;21.00
65383;PMS5003;51986;52.788;41.368;2023-12-29T09:55:19;31.00;26.00;20.00
65383;PMS5003;51986;52.788;41.368;2023-12-29T09:57:48;28.50;24.50;19.00
65383;PMS5003;51986;52.788;41.368;2023-12-29T10:00:15;27.50;23.00;18.00
65383;PMS5003;51986;52.788;41.368;2023-12-29T10:02:43;27.00;23.00;18.00
65383;PMS5003;51986;52.788;41.368;2023-12-29T10:05:10;23.00;21.00;16.00
65383;PMS5003;51986;52.788;41.368;2023-12-29T10:07:38;28.25;24.50;18.00
65383;PMS5003;51986;52.788;41.368;2023-12-29T10:10:06;32.00;27.00;20.00
65383;PMS5003;51986;52.788;41.368;2023-12-29T10:12:34;29.50;24.25;19.00
65383;PMS5003;51986;52.788;41.368;2023-12-29T10:23:33;33.00;27.50;21.00
65383;PMS5003;51986;52.788;41.368;2023-12-29T10:26:12;34.75;29.00;21.00
65383;PMS5003;51986;52.788;41.368;2023-12-29T10:28:40;35.00;29.00;21.00
65383;PMS5003;51986;52.788;41.368;2023-12-29T10:31:07;30.50;25.25;18.75
65383;PMS5003;51986;52.788;41.368;2023-12-29T10:33:41;26.00;23.00;18.00
65383;PMS5003;51986;52.788;41.368;2023-12-29T10:36:08;31.00;26.00;20.75
65383;PMS5003;51986;52.788;41.368;2023-12-29T10:38:38;34.00;27.50;21.00
65383;PMS5003;51986;52.788;41.368;2023-12-29T10:43:40;27.00;23.00;18.00
65383;PMS5003;51986;52.788;41.368;2023-12-29T10:46:08;29.00;24.50;18.75
65383;PMS5003;51986;52.788;41.368;2023-12-29T10:48:37;32.50;27.00;21.00
65383;PMS5003;51986;52.788;41.368;2023-12-29T10:51:05;30.00;25.00;19.00
65383;PMS5003;51986;52.788;41.368;2023-12-29T10:53:33;26.00;23.00;18.00
65383;PMS5003;51986;52.788;41.368;2023-12-29T10:56:16;27.00;24.00;18.00
65383;PMS5003;51986;52.788;41.368;2023-12-29T10:58:46;28.75;23.00;18.00
65383;PMS5003;51986;52.788;41.368;2023-12-29T11:01:23;27.25;23.00;18.00
65383;PMS5003;51986;52.788;41.368;2023-12-29T11:04:04;28.50;24.00;18.50
65383;PMS5003;51986;52.788;41.368;2023-12-29T11:06:43;29.75;23.25;18.00
65383;PMS5003;51986;52.788;41.368;2023-12-29T11:09:11;31.00;25.75;20.50
65383;PMS5003;51986;52.788;41.368;2023-12-29T11:11:38;33.75;28.00;21.00
65383;PMS5003;51986;52.788;41.368;2023-12-29T11:14:05;31.00;25.50;19.00
65383;PMS5003;51986;52.788;41.368;2023-12-29T11:16:37;32.50;27.00;21.00
65383;PMS5003;51986;52.788;41.368;2023-12-29T11:19:06;31.25;26.25;21.00
65383;PMS5003;51986;52.788;41.368;2023-12-29T11:21:34;32.50;27.00;21.00
65383;PMS5003;51986;52.788;41.368;2023-12-29T11:24:02;31.00;26.50;20.00
65383;PMS5003;51986;52.788;41.368;2023-12-29T11:26:29;32.00;26.75;21.00
65383;PMS5003;51986;52.788;41.368;2023-12-29T11:28:57;34.00;27.00;21.00
65383;PMS5003;51986;52.788;41.368;2023-12-29T11:31:24;30.00;24.25;19.00
65383;PMS5003;51986;52.788;41.368;2023-12-29T11:33:55;32.25;27.00;21.00
65383;PMS5003;51986;52.788;41.368;2023-12-29T11:36:28;31.75;27.00;21.00
65383;PMS5003;51986;52.788;41.368;2023-12-29T11:42:06;29.50;25.00;19.00
65383;PMS5003;51986;52.788;41.368;2023-12-29T11:44:33;27.00;23.00;18.00
65383;PMS5003;51986;52.788;41.368;2023-12-29T11:47:01;26.50;22.75;18.00
65383;PMS5003;51986;52.788;41.368;2023-12-29T11:52:32;30.00;25.00;18.00
65383;PMS5003;51986;52.788;41.368;2023-12-29T11:55:12;31.00;26.00;20.00
65383;PMS5003;51986;52.788;41.368;2023-12-29T11:57:40;29.00;25.00;18.25
65383;PMS5003;51986;52.788;41.368;2023-12-29T12:00:08;27.00;23.00;18.00
65383;PMS5003;51986;52.788;41.368;2023-12-29T12:02:38;28.00;23.00;18.00
65383;PMS5003;51986;52.788;41.368;2023-12-29T12:05:08;31.00;26.50;19.50
65383;PMS5003;51986;52.788;41.368;2023-12-29T12:12:49;30.50;26.00;19.00
65383;PMS5003;51986;52.788;41.368;2023-12-29T12:20:23;33.00;27.00;20.50
65383;PMS5003;51986;52.788;41.368;2023-12-29T12:23:01;29.25;24.50;18.00
65383;PMS5003;51986;52.788;41.368;2023-12-29T12:25:31;27.00;23.00;17.75
65383;PMS5003;51986;52.788;41.368;2023-12-29T12:27:58;25.00;22.00;18.00
65383;PMS5003;51986;52.788;41.368;2023-12-29T12:30:26;26.50;22.75;17.00
65383;PMS5003;51986;52.788;41.368;2023-12-29T12:33:00;30.25;25.50;19.00
65383;PMS5003;51986;52.788;41.368;2023-12-29T12:35:28;33.00;27.00;20.50
65383;PMS5003;51986;52.788;41.368;2023-12-29T12:40:40;30.00;25.00;18.00
65383;PMS5003;51986;52.788;41.368;2023-12-29T12:43:07;32.75;27.00;20.25
65383;PMS5003;51986;52.788;41.368;2023-12-29T12:45:40;33.00;27.75;21.00
65383;PMS5003;51986;52.788;41.368;2023-12-29T12:48:30;31.00;26.25;20.00
65383;PMS5003;51986;52.788;41.368;2023-12-29T12:51:03;32.50;27.00;20.25
65383;PMS5003;51986;52.788;41.368;2023-12-29T12:53:30;31.00;25.00;19.00
65383;PMS5003;51986;52.788;41.368;2023-12-29T12:55:57;32.00;27.00;20.50
65383;PMS5003;51986;52.788;41.368;2023-12-29T12:58:25;29.00;25.00;19.00
65383;PMS5003;51986;52.788;41.368;2023-12-29T13:00:53;32.25;27.50;20.75
65383;PMS5003;51986;52.788;41.368;2023-12-29T13:03:25;29.50;25.00;18.00
65383;PMS5003;51986;52.788;41.368;2023-12-29T13:05:52;33.00;27.75;21.00
65383;PMS5003;51986;52.788;41.368;2023-12-29T13:08:20;34.00;28.75;22.00
65383;PMS5003;51986;52.788;41.368;2023-12-29T13:11:00;34.50;29.00;22.00
65383;PMS5003;51986;52.788;41.368;2023-12-29T13:13:37;33.50;28.00;21.50
65383;PMS5003;51986;52.788;41.368;2023-12-29T13:16:08;30.75;26.75;21.00
65383;PMS5003;51986;52.788;41.368;2023-12-29T13:18:36;27.00;23.50;18.00
65383;PMS5003;51986;52.788;41.368;2023-12-29T13:21:03;31.25;26.75;20.50
65383;PMS5003;51986;52.788;41.368;2023-12-29T13:23:31;33.00;27.00;21.00
65383;PMS5003;51986;52.788;41.368;2023-12-29T13:26:02;30.00;25.00;19.00
65383;PMS5003;51986;52.788;41.368;2023-12-29T13:28:34;30.25;25.25;19.00
65383;PMS5003;51986;52.788;41.368;2023-12-29T13:31:05;30.00;25.00;18.50
65383;PMS5003;51986;52.788;41.368;2023-12-29T13:33:42;29.00;25.00;19.25
65383;PMS5003;51986;52.788;41.368;2023-12-29T13:38:58;30.75;25.75;19.75
65383;PMS5003;51986;52.788;41.368;2023-12-29T13:41:33;33.00;27.00;20.50
65383;PMS5003;51986;52.788;41.368;2023-12-29T13:44:01;35.00;29.00;21.00
65383;PMS5003;51986;52.788;41.368;2023-12-29T13:46:29;29.75;25.00;18.00
65383;PMS5003;51986;52.788;41.368;2023-12-29T13:48:57;29.00;24.00;18.00
65383;PMS5003;51986;52.788;41.368;2023-12-29T13:51:25;30.75;26.25;19.75
65383;PMS5003;51986;52.788;41.368;2023-12-29T13:53:59;26.50;23.00;18.00
65383;PMS5003;51986;52.788;41.368;2023-12-29T13:56:27;30.50;25.00;19.25
65383;PMS5003;51986;52.788;41.368;2023-12-29T13:58:54;33.00;27.00;21.00
65383;PMS5003;51986;52.788;41.368;2023-12-29T14:01:22;30.00;24.00;18.00
65383;PMS5003;51986;52.788;41.368;2023-12-29T14:03:58;28.75;24.00;18.00
65383;PMS5003;51986;52.788;41.368;2023-12-29T14:06:30;31.00;26.50;20.00
65383;PMS5003;51986;52.788;41.368;2023-12-29T14:09:18;34.00;28.00;21.00
65383;PMS5003;51986;52.788;41.368;2023-12-29T14:11:47;36.00;29.25;22.75
65383;PMS5003;51986;52.788;41.368;2023-12-29T14:14:25;33.00;26.25;21.00
65383;PMS5003;51986;52.788;41.368;2023-12-29T14:16:52;28.50;23.75;18.00
65383;PMS5003;51986;52.788;41.368;2023-12-29T14:19:20;26.50;23.00;18.00
65383;PMS5003;51986;52.788;41.368;2023-12-29T14:21:52;24.50;22.00;17.00